createdAt,value
2023-02-06T00:02:13.826Z,51.65
2023-02-06T00:04:42.327Z,63.47
2023-02-06T00:07:10.972Z,54.75
2023-02-06T00:09:39.242Z,57.70
2023-02-06T00:12:07.918Z,52.75
2023-02-06T00:14:36.281Z,56.85
2023-02-06T00:17:04.920Z,57.95
2023-02-06T00:19:33.275Z,59.17
2023-02-06T00:22:02.230Z,51.00
2023-02-06T00:24:30.803Z,47.17
2023-02-06T00:26:59.719Z,58.17
2023-02-06T00:29:28.017Z,51.80
2023-02-06T00:31:56.976Z,49.72
2023-02-06T00:34:25.536Z,48.47
2023-02-06T00:36:54.335Z,43.72
2023-02-06T00:39:22.937Z,41.22
2023-02-06T00:41:52.194Z,45.17
2023-02-06T00:44:21.823Z,47.20
2023-02-06T00:46:53.295Z,42.50
2023-02-06T00:49:22.047Z,41.00
2023-02-06T00:51:52.747Z,48.67
2023-02-06T00:54:21.114Z,53.13
2023-02-06T00:56:49.728Z,58.60
2023-02-06T00:59:18.108Z,58.55
2023-02-06T01:01:46.808Z,54.45
2023-02-06T01:04:15.140Z,57.47
2023-02-06T01:06:43.830Z,54.80
2023-02-06T01:09:12.213Z,56.88
2023-02-06T01:11:41.126Z,52.65
2023-02-06T01:14:09.787Z,50.75
2023-02-06T01:16:38.745Z,52.95
2023-02-06T01:19:07.327Z,52.42
2023-02-06T01:21:37.235Z,50.05
2023-02-06T01:24:05.960Z,50.50
2023-02-06T01:26:34.671Z,48.35
2023-02-06T01:29:04.257Z,47.85
2023-02-06T01:31:33.458Z,45.35
2023-02-06T01:34:02.101Z,43.60
2023-02-06T01:36:32.113Z,46.05
2023-02-06T01:39:00.496Z,45.13
2023-02-06T01:41:30.432Z,47.90
2023-02-06T01:44:17.968Z,48.15
2023-02-06T01:46:52.115Z,44.38
2023-02-06T01:49:31.246Z,45.38
2023-02-06T01:52:14.390Z,45.28
2023-02-06T01:54:51.354Z,47.20
2023-02-06T01:57:21.302Z,45.70
2023-02-06T01:59:54.900Z,43.13
2023-02-06T02:02:27.686Z,45.10
2023-02-06T02:04:59.384Z,45.63
2023-02-06T02:07:33.294Z,51.20
2023-02-06T02:10:01.781Z,44.38
2023-02-06T02:12:31.422Z,50.58
2023-02-06T02:15:00.620Z,49.90
2023-02-06T02:17:44.598Z,45.88
2023-02-06T02:20:15.933Z,51.67
2023-02-06T02:22:57.335Z,49.50
2023-02-06T02:25:53.784Z,56.60
2023-02-06T02:28:34.723Z,48.58
2023-02-06T02:31:20.645Z,50.30
2023-02-06T02:34:21.073Z,49.88
2023-02-06T02:37:17.913Z,51.63
2023-02-06T02:40:08.063Z,50.95
2023-02-06T02:42:43.565Z,51.58
2023-02-06T02:45:26.305Z,51.55
2023-02-06T02:50:31.466Z,49.35
2023-02-06T02:53:02.440Z,55.42
2023-02-06T02:55:32.048Z,53.53
2023-02-06T02:58:10.821Z,52.20
2023-02-06T03:00:50.225Z,56.10
2023-02-06T03:03:23.402Z,51.53
2023-02-06T03:06:04.943Z,51.95
2023-02-06T03:08:59.011Z,51.53
2023-02-06T03:11:27.814Z,52.35
2023-02-06T03:14:01.543Z,56.97
2023-02-06T03:16:42.640Z,52.25
2023-02-06T03:19:32.877Z,59.40
2023-02-06T03:22:03.742Z,55.22
2023-02-06T03:24:39.036Z,61.10
2023-02-06T03:27:18.277Z,59.20
2023-02-06T03:29:49.636Z,63.50
2023-02-06T03:32:30.011Z,57.22
2023-02-06T03:35:13.243Z,59.60
2023-02-06T03:37:42.399Z,55.33
2023-02-06T03:40:12.469Z,56.75
2023-02-06T03:42:45.942Z,61.03
2023-02-06T03:45:28.960Z,56.97
2023-02-06T03:48:03.822Z,52.67
2023-02-06T03:50:34.942Z,59.45
2023-02-06T03:53:04.904Z,58.80
2023-02-06T03:55:33.354Z,58.03
2023-02-06T03:58:14.194Z,53.70
2023-02-06T04:00:44.604Z,50.92
2023-02-06T04:06:00.812Z,53.88
2023-02-06T04:08:29.436Z,60.22
2023-02-06T04:10:58.293Z,67.88
2023-02-06T04:13:26.918Z,67.43
2023-02-06T04:15:56.483Z,67.40
2023-02-06T04:18:25.301Z,69.50
2023-02-06T04:20:53.875Z,72.90
2023-02-06T04:23:22.663Z,67.95
2023-02-06T04:25:50.870Z,66.10
2023-02-06T04:28:19.472Z,75.22
2023-02-06T04:30:48.251Z,62.13
2023-02-06T04:33:17.144Z,69.82
2023-02-06T04:35:45.448Z,67.32
2023-02-06T04:38:14.102Z,59.35
2023-02-06T04:40:42.735Z,64.43
2023-02-06T04:43:11.546Z,65.05
2023-02-06T04:45:40.149Z,63.45
2023-02-06T04:48:09.037Z,63.17
2023-02-06T04:50:37.406Z,68.97
2023-02-06T04:53:06.153Z,66.13
2023-02-06T04:55:36.025Z,64.55
2023-02-06T04:58:04.901Z,69.20
2023-02-06T05:00:33.762Z,65.88
2023-02-06T05:03:02.418Z,67.25
2023-02-06T05:05:31.164Z,69.28
2023-02-06T05:07:59.975Z,72.88
2023-02-06T05:10:28.406Z,68.70
2023-02-06T05:12:58.729Z,72.10
2023-02-06T05:15:28.937Z,76.93
2023-02-06T05:17:57.620Z,67.63
2023-02-06T05:20:25.974Z,73.10
2023-02-06T05:22:55.023Z,82.88
2023-02-06T05:25:23.808Z,103.30
2023-02-06T05:27:52.723Z,83.72
2023-02-06T05:30:21.083Z,93.60
2023-02-06T05:32:49.874Z,94.15
2023-02-06T05:35:18.303Z,90.05
2023-02-06T05:37:46.918Z,82.32
2023-02-06T05:40:15.614Z,85.32
2023-02-06T05:42:44.305Z,80.10
2023-02-06T05:45:13.265Z,76.32
2023-02-06T05:47:42.138Z,74.45
2023-02-06T05:50:10.728Z,83.55
2023-02-06T05:52:39.453Z,86.43
2023-02-06T05:55:09.010Z,83.00
2023-02-06T05:57:37.844Z,83.25
2023-02-06T06:00:06.891Z,84.03
2023-02-06T06:02:41.113Z,97.65
2023-02-06T06:05:09.567Z,83.25
2023-02-06T06:07:38.368Z,83.20
2023-02-06T06:10:07.695Z,88.38
2023-02-06T06:12:36.652Z,91.60
2023-02-06T06:15:05.447Z,93.45
2023-02-06T06:17:34.657Z,87.10
2023-02-06T06:20:03.202Z,97.38
2023-02-06T06:22:32.098Z,87.38
2023-02-06T06:25:00.964Z,92.45
2023-02-06T06:27:30.085Z,89.85
2023-02-06T06:29:58.547Z,86.38
2023-02-06T06:32:27.250Z,85.45
2023-02-06T06:34:55.495Z,78.80
2023-02-06T06:37:24.743Z,66.85
2023-02-06T06:39:53.198Z,67.45
2023-02-06T06:42:22.003Z,68.32
2023-02-06T06:44:50.367Z,67.72
2023-02-06T06:47:19.095Z,66.97
2023-02-06T06:49:47.843Z,77.25
2023-02-06T06:52:24.965Z,79.53
2023-02-06T06:54:54.507Z,83.47
2023-02-06T06:57:23.548Z,75.55
2023-02-06T06:59:52.658Z,80.53
2023-02-06T07:02:21.347Z,98.90
2023-02-06T07:04:50.104Z,91.53
2023-02-06T07:07:18.722Z,90.03
2023-02-06T07:09:47.455Z,86.82
2023-02-06T07:12:16.545Z,78.38
2023-02-06T07:14:44.808Z,78.22
2023-02-06T07:17:13.878Z,86.88
2023-02-06T07:19:42.395Z,83.63
2023-02-06T07:22:11.032Z,78.03
2023-02-06T07:24:39.327Z,72.25
2023-02-06T07:27:07.911Z,75.13
2023-02-06T07:29:36.237Z,71.80
2023-02-06T07:32:06.082Z,74.82
2023-02-06T07:34:35.301Z,90.97
2023-02-06T07:37:04.808Z,113.65
2023-02-06T07:39:33.579Z,113.80
2023-02-06T07:42:02.157Z,94.13
2023-02-06T07:44:43.943Z,92.60
2023-02-06T07:47:15.666Z,88.72
2023-02-06T07:49:44.048Z,102.88
2023-02-06T07:52:12.723Z,102.55
2023-02-06T07:54:40.934Z,97.05
2023-02-06T07:57:09.697Z,82.38
2023-02-06T07:59:37.934Z,81.05
2023-02-06T08:02:07.248Z,68.32
2023-02-06T08:04:36.349Z,71.90
2023-02-06T08:07:06.502Z,71.35
2023-02-06T08:09:34.853Z,78.47
2023-02-06T08:12:03.455Z,72.00
2023-02-06T08:14:32.732Z,72.95
2023-02-06T08:17:01.487Z,73.60
2023-02-06T08:19:29.874Z,74.93
2023-02-06T08:21:58.538Z,75.20
2023-02-06T08:24:26.935Z,61.80
2023-02-06T08:26:56.058Z,64.53
2023-02-06T08:29:24.932Z,68.53
2023-02-06T08:31:53.954Z,63.70
2023-02-06T08:34:22.379Z,60.80
2023-02-06T08:36:51.067Z,61.55
2023-02-06T08:39:19.662Z,56.10
2023-02-06T08:41:48.481Z,56.17
2023-02-06T08:44:18.517Z,57.20
2023-02-06T08:46:49.659Z,83.75
2023-02-06T08:49:22.824Z,97.35
2023-02-06T08:51:51.528Z,83.95
2023-02-06T08:54:22.367Z,66.80
2023-02-06T08:56:52.284Z,62.13
2023-02-06T08:59:20.898Z,59.22
2023-02-06T09:01:49.888Z,63.92
2023-02-06T09:04:19.419Z,66.38
2023-02-06T09:06:49.279Z,65.75
2023-02-06T09:09:18.465Z,62.30
2023-02-06T09:11:47.748Z,63.53
2023-02-06T09:14:18.222Z,65.43
2023-02-06T09:16:46.840Z,56.17
2023-02-06T09:19:15.215Z,54.10
2023-02-06T09:21:44.018Z,42.58
2023-02-06T09:24:12.475Z,37.78
2023-02-06T09:26:58.591Z,36.78
2023-02-06T09:29:29.713Z,32.85
2023-02-06T09:31:59.668Z,38.83
2023-02-06T09:34:28.517Z,33.67
2023-02-06T09:36:58.001Z,37.85
2023-02-06T09:39:26.833Z,36.83
2023-02-06T09:42:03.426Z,33.53
2023-02-06T09:44:37.062Z,35.95
2023-02-06T09:47:24.747Z,35.88
2023-02-06T09:49:59.846Z,31.30
2023-02-06T09:53:06.055Z,35.75
2023-02-06T09:55:43.170Z,33.67
2023-02-06T09:58:50.845Z,32.63
2023-02-06T10:01:28.226Z,32.53
2023-02-06T10:04:02.218Z,31.45
2023-02-06T10:06:56.131Z,29.15
2023-02-06T10:09:38.431Z,33.83
2023-02-06T10:12:15.207Z,33.33
2023-02-06T10:14:46.632Z,19.23
2023-02-06T10:17:45.293Z,25.93
2023-02-06T10:20:21.502Z,25.70
2023-02-06T10:23:19.772Z,28.02
2023-02-06T10:25:59.626Z,25.30
2023-02-06T10:28:31.018Z,28.48
2023-02-06T10:31:13.174Z,26.67
2023-02-06T10:33:57.048Z,27.83
2023-02-06T10:36:30.052Z,25.90
2023-02-06T10:39:15.021Z,28.80
2023-02-06T10:41:59.647Z,35.05
2023-02-06T10:45:18.945Z,38.28
2023-02-06T10:47:51.581Z,37.72
2023-02-06T10:50:36.621Z,29.40
2023-02-06T10:53:15.103Z,23.83
2023-02-06T10:55:53.206Z,21.17
2023-02-06T10:58:33.542Z,26.65
2023-02-06T11:01:11.322Z,26.15
2023-02-06T11:04:04.697Z,23.55
2023-02-06T11:06:33.611Z,28.40
2023-02-06T11:09:02.220Z,28.45
2023-02-06T11:11:35.659Z,30.88
2023-02-06T11:14:19.461Z,29.83
2023-02-06T11:16:47.846Z,32.28
2023-02-06T11:19:33.884Z,28.30
2023-02-06T11:22:05.930Z,31.35
2023-02-06T11:24:36.405Z,32.33
2023-02-06T11:27:18.742Z,31.23
2023-02-06T11:29:52.087Z,33.78
2023-02-06T11:32:52.820Z,32.17
2023-02-06T11:35:40.148Z,33.28
2023-02-06T11:38:27.944Z,33.58
2023-02-06T11:41:03.156Z,33.70
2023-02-06T11:43:44.592Z,33.92
2023-02-06T11:46:17.732Z,26.40
2023-02-06T11:49:00.892Z,22.55
2023-02-06T11:52:00.614Z,24.63
2023-02-06T11:54:32.264Z,25.92
2023-02-06T11:59:34.735Z,20.08
2023-02-06T12:02:25.937Z,22.05
2023-02-06T12:05:03.285Z,20.35
2023-02-06T12:07:39.920Z,19.48
2023-02-06T12:10:17.529Z,18.63
2023-02-06T12:12:50.967Z,23.42
2023-02-06T12:15:46.908Z,22.08
2023-02-06T12:18:19.037Z,19.52
2023-02-06T12:21:04.971Z,25.75
2023-02-06T12:24:00.170Z,21.35
2023-02-06T12:26:32.588Z,21.27
2023-02-06T12:29:15.648Z,18.98
2023-02-06T12:32:11.340Z,32.80
2023-02-06T12:34:54.567Z,18.67
2023-02-06T12:37:44.297Z,25.48
2023-02-06T12:40:48.450Z,29.65
2023-02-06T12:43:18.575Z,27.55
2023-02-06T12:46:10.541Z,16.30
2023-02-06T12:49:13.236Z,13.32
2023-02-06T12:51:55.371Z,20.20
2023-02-06T12:54:30.325Z,16.08
2023-02-06T12:57:20.684Z,19.05
2023-02-06T12:59:59.938Z,17.42
2023-02-06T13:02:47.496Z,15.35
2023-02-06T13:05:25.262Z,14.23
2023-02-06T13:07:57.529Z,16.10
2023-02-06T13:10:26.642Z,14.95
2023-02-06T13:12:57.744Z,14.73
2023-02-06T13:15:37.016Z,15.57
2023-02-06T13:18:41.786Z,22.42
2023-02-06T13:21:30.959Z,14.80
2023-02-06T13:24:02.972Z,17.00
2023-02-06T13:26:53.371Z,18.58
2023-02-06T13:29:27.383Z,13.38
2023-02-06T13:32:32.433Z,14.68
2023-02-06T13:35:13.368Z,17.15
2023-02-06T13:37:48.288Z,13.80
2023-02-06T13:40:46.290Z,14.45
2023-02-06T13:43:21.623Z,12.55
2023-02-06T13:46:02.255Z,13.82
2023-02-06T13:48:58.968Z,13.48
2023-02-06T13:51:50.533Z,12.95
2023-02-06T13:54:54.211Z,12.35
2023-02-06T13:57:39.155Z,13.02
2023-02-06T14:00:20.014Z,15.68
2023-02-06T14:03:06.566Z,12.10
2023-02-06T14:05:53.817Z,11.10
2023-02-06T14:08:44.014Z,17.10
2023-02-06T14:11:20.731Z,16.00
2023-02-06T14:14:04.799Z,12.23
2023-02-06T14:16:52.640Z,13.75
2023-02-06T14:19:47.196Z,15.18
2023-02-06T14:22:34.449Z,13.93
2023-02-06T14:25:40.647Z,15.73
2023-02-06T14:28:47.454Z,16.52
2023-02-06T14:31:36.224Z,15.93
2023-02-06T14:34:52.005Z,18.40
2023-02-06T14:37:30.162Z,14.45
2023-02-06T14:40:04.504Z,13.05
2023-02-06T14:42:40.021Z,13.88
2023-02-06T14:45:31.904Z,15.02
2023-02-06T14:48:07.054Z,15.20
2023-02-06T14:50:40.652Z,14.35
2023-02-06T14:53:23.638Z,14.43
2023-02-06T14:55:52.834Z,13.73
2023-02-06T14:58:31.291Z,16.58
2023-02-06T15:01:15.454Z,10.63
2023-02-06T15:03:45.614Z,14.48
2023-02-06T15:06:31.813Z,20.98
2023-02-06T15:09:01.470Z,29.38
2023-02-06T15:11:33.088Z,31.48
2023-02-06T15:14:06.121Z,26.90
2023-02-06T15:16:48.501Z,36.08
2023-02-06T15:19:25.833Z,32.78
2023-02-06T15:22:01.764Z,31.73
2023-02-06T15:24:46.436Z,40.78
2023-02-06T15:27:24.005Z,41.33
2023-02-06T15:29:53.250Z,51.03
2023-02-06T15:32:29.836Z,40.30
2023-02-06T15:35:02.718Z,45.72
2023-02-06T15:37:34.254Z,58.97
2023-02-06T15:40:19.143Z,58.40
2023-02-06T15:42:49.549Z,79.25
2023-02-06T15:45:23.168Z,46.72
2023-02-06T15:48:05.254Z,48.22
2023-02-06T15:50:41.852Z,55.97
2023-02-06T15:53:21.598Z,45.63
2023-02-06T15:55:57.095Z,60.90
2023-02-06T15:58:26.588Z,52.40
2023-02-06T16:00:58.673Z,62.70
2023-02-06T16:03:29.732Z,70.80
2023-02-06T16:05:59.820Z,55.35
2023-02-06T16:08:35.845Z,48.65
2023-02-06T16:11:28.560Z,57.03
2023-02-06T16:13:57.982Z,83.03
2023-02-06T16:16:28.194Z,95.50
2023-02-06T16:18:58.737Z,87.65
2023-02-06T16:21:30.339Z,76.95
2023-02-06T16:24:07.241Z,79.15
2023-02-06T16:26:44.496Z,85.45
2023-02-06T16:29:13.218Z,72.95
2023-02-06T16:31:44.612Z,139.43
2023-02-06T16:34:29.377Z,259.47
2023-02-06T16:36:58.274Z,120.03
2023-02-06T16:39:26.704Z,161.68
2023-02-06T16:41:55.482Z,136.13
2023-02-06T16:44:36.071Z,174.80
2023-02-06T16:47:18.549Z,138.40
2023-02-06T16:49:48.599Z,133.20
2023-02-06T16:52:23.273Z,137.88
2023-02-06T16:54:55.902Z,95.63
2023-02-06T16:57:36.848Z,82.53
2023-02-06T17:00:09.700Z,72.82
2023-02-06T17:02:39.630Z,65.32
2023-02-06T17:05:08.235Z,62.97
2023-02-06T17:07:38.145Z,67.03
2023-02-06T17:10:07.208Z,71.72
2023-02-06T17:12:36.564Z,66.53
2023-02-06T17:15:05.819Z,48.95
2023-02-06T17:17:36.143Z,53.80
2023-02-06T17:20:04.963Z,58.85
2023-02-06T17:22:33.717Z,68.43
2023-02-06T17:25:02.238Z,70.15
2023-02-06T17:27:31.239Z,71.07
2023-02-06T17:29:59.777Z,69.07
2023-02-06T17:32:28.443Z,71.43
2023-02-06T17:34:58.755Z,89.72
2023-02-06T17:37:27.477Z,96.53
2023-02-06T17:39:55.765Z,99.80
2023-02-06T17:42:25.935Z,112.60
2023-02-06T17:44:54.300Z,109.00
2023-02-06T17:47:23.046Z,92.43
2023-02-06T17:49:51.711Z,85.93
2023-02-06T17:52:21.831Z,80.25
2023-02-06T17:54:53.167Z,80.22
2023-02-06T17:57:24.517Z,79.70
2023-02-06T17:59:53.783Z,84.25
2023-02-06T18:02:22.685Z,74.32
2023-02-06T18:04:53.472Z,70.47
2023-02-06T18:07:22.347Z,68.28
2023-02-06T18:09:50.842Z,62.80
2023-02-06T18:12:19.894Z,59.60
2023-02-06T18:14:50.436Z,46.22
2023-02-06T18:17:24.920Z,46.97
2023-02-06T18:20:00.135Z,49.65
2023-02-06T18:22:42.764Z,59.05
2023-02-06T18:25:16.892Z,54.05
2023-02-06T18:27:47.247Z,65.05
2023-02-06T18:30:17.410Z,61.63
2023-02-06T18:32:46.244Z,98.60
2023-02-06T18:35:20.366Z,110.22
2023-02-06T18:37:50.282Z,125.28
2023-02-06T18:40:19.042Z,123.05
2023-02-06T18:42:51.143Z,98.75
2023-02-06T18:45:21.317Z,110.07
2023-02-06T18:47:53.420Z,112.97
2023-02-06T18:52:51.924Z,121.03
2023-02-06T18:55:20.760Z,125.28
2023-02-06T18:57:53.529Z,69.32
2023-02-06T19:00:24.061Z,76.65
2023-02-06T19:02:59.392Z,95.78
2023-02-06T19:05:30.900Z,102.88
2023-02-06T19:08:01.269Z,106.28
2023-02-06T19:10:29.831Z,94.32
2023-02-06T19:12:59.358Z,101.82
2023-02-06T19:15:30.361Z,105.07
2023-02-06T19:17:59.644Z,105.10
2023-02-06T19:20:30.674Z,101.80
2023-02-06T19:22:59.729Z,83.95
2023-02-06T19:25:28.460Z,84.15
2023-02-06T19:27:57.521Z,85.80
2023-02-06T19:30:28.316Z,86.68
2023-02-06T19:33:01.016Z,88.20
2023-02-06T19:39:41.129Z,82.85
2023-02-06T19:42:21.083Z,102.07
2023-02-06T19:44:59.345Z,86.70
2023-02-06T19:47:28.074Z,99.72
2023-02-06T19:49:58.297Z,71.72
2023-02-06T19:52:31.758Z,64.43
2023-02-06T19:55:01.538Z,63.58
2023-02-06T19:57:36.802Z,65.28
2023-02-06T20:00:24.328Z,63.70
2023-02-06T20:02:59.136Z,74.60
2023-02-06T20:05:28.257Z,64.63
2023-02-06T20:07:56.864Z,50.92
2023-02-06T20:10:26.152Z,50.47
2023-02-06T20:12:59.061Z,113.40
2023-02-06T20:15:29.689Z,131.18
2023-02-06T20:17:59.249Z,111.85
2023-02-06T20:20:28.074Z,105.22
2023-02-06T20:22:56.532Z,99.78
2023-02-06T20:25:26.696Z,96.07
2023-02-06T20:27:55.495Z,101.95
2023-02-06T20:30:24.595Z,98.05
2023-02-06T20:32:53.345Z,104.45
2023-02-06T20:35:27.078Z,86.07
2023-02-06T20:38:03.268Z,129.23
2023-02-06T20:40:40.033Z,129.90
2023-02-06T20:43:11.513Z,124.07
2023-02-06T20:48:17.865Z,127.43
2023-02-06T20:50:46.545Z,126.35
2023-02-06T20:53:16.081Z,148.18
2023-02-06T20:55:47.828Z,157.27
2023-02-06T20:58:16.483Z,137.68
2023-02-06T21:00:51.464Z,141.50
2023-02-06T21:03:36.363Z,131.63
2023-02-06T21:06:16.313Z,157.98
2023-02-06T21:09:08.040Z,158.07
2023-02-06T21:11:44.064Z,137.13
2023-02-06T21:14:17.899Z,108.35
2023-02-06T21:17:19.587Z,78.20
2023-02-06T21:19:51.257Z,58.33
2023-02-06T21:22:21.936Z,58.33
2023-02-06T21:27:48.015Z,44.78
2023-02-06T21:30:21.580Z,50.00
2023-02-06T21:32:51.225Z,53.33
2023-02-06T21:35:19.513Z,46.88
2023-02-06T21:37:48.452Z,41.63
2023-02-06T21:40:17.280Z,78.30
2023-02-06T21:42:46.053Z,86.85
2023-02-06T21:45:14.855Z,78.90
2023-02-06T21:47:46.331Z,90.88
2023-02-06T21:50:17.150Z,92.03
2023-02-06T21:52:48.788Z,102.43
2023-02-06T21:55:17.580Z,90.90
2023-02-06T21:57:46.146Z,112.93
2023-02-06T22:00:15.917Z,104.63
2023-02-06T22:02:59.163Z,99.57
2023-02-06T22:05:29.379Z,88.57
2023-02-06T22:07:58.920Z,90.28
2023-02-06T22:10:27.736Z,85.82
2023-02-06T22:13:05.986Z,87.47
2023-02-06T22:15:35.476Z,90.55
2023-02-06T22:18:04.010Z,83.65
2023-02-06T22:20:32.786Z,92.45
2023-02-06T22:23:01.161Z,81.47
2023-02-06T22:25:29.991Z,105.93
2023-02-06T22:28:00.680Z,105.68
2023-02-06T22:30:29.518Z,103.18
2023-02-06T22:32:57.873Z,132.20
2023-02-06T22:35:26.710Z,134.27
2023-02-06T22:37:54.994Z,123.72
2023-02-06T22:40:23.727Z,120.65
2023-02-06T22:42:52.124Z,133.20
2023-02-06T22:45:22.003Z,121.47
2023-02-06T22:47:53.518Z,134.35
2023-02-06T22:50:25.424Z,130.38
2023-02-06T22:53:12.299Z,126.88
2023-02-06T22:55:59.932Z,125.57
2023-02-06T22:58:28.263Z,168.50
2023-02-06T23:01:03.012Z,224.27
2023-02-06T23:03:31.457Z,242.80
2023-02-06T23:06:05.517Z,205.40
2023-02-06T23:08:36.975Z,156.63
2023-02-06T23:13:44.799Z,131.75
2023-02-06T23:16:19.800Z,96.38
2023-02-06T23:18:48.709Z,110.03
2023-02-06T23:21:23.367Z,98.63
2023-02-06T23:23:57.044Z,101.05
2023-02-06T23:26:32.963Z,90.95
2023-02-06T23:29:07.375Z,77.93
2023-02-06T23:31:37.148Z,86.57
2023-02-06T23:34:05.693Z,97.85
2023-02-06T23:36:34.910Z,103.50
2023-02-06T23:39:04.719Z,111.07
2023-02-06T23:41:34.073Z,111.30
2023-02-06T23:44:05.992Z,108.68
2023-02-06T23:46:37.534Z,113.20
2023-02-06T23:49:06.873Z,128.57
2023-02-06T23:51:36.720Z,154.27
2023-02-06T23:54:07.531Z,133.20
2023-02-06T23:56:37.164Z,139.30
2023-02-06T23:59:06.056Z,148.60
